Terminal Aerodrome Forecast
Issued by NWS

Home | Current Version | Previous Version | Text Only | Print | Product List | Glossary On
Versions: 1 2 3 4 5 6 7 8 9 10 11 12 13 14
000
FTUS46 KPDT 262300
TAFRDM
TAF
KRDM 262326Z 2700/2724 08007KT P6SM BKN200
     FM270600 15007KT P6SM BKN150
     FM271200 17010KT P6SM BKN080=

USA.gov is the U.S. government's official web portal to all federal, state and local government web resources and services.